Alts de Jayuya, Puerto Rico
Current Conditions -  °F | °C
As of 11:50 AM on Friday 24 Oct 2014 (Local Time) from TJBQ Reporting Station
Scattered Clouds Scattered Clouds  
Wind Chill: 30°   Ceiling: Unl
Heat Index: 35°   Visibility: 10mi
Dew Point: 24°   Wind: 7mph
Humidity: 70%   Direction: 40°NE
Pressure: 29.95"   Gusts: NA
Location:  18.2205°N, 66.6046°W
Report Text: TJBQ 241550Z 04006KT 10SM SCT040 SCT048 SCT070 30/24 A2995 RMK RWY08 - ATIS V
Loading
Personal Weather Stations






























Interactive Weather Map
Tropical Storm Tracking
New forecast layout! Learn more

10-Day Weather Forecast

Advertisements
Track Severe Weather on mobile